Accueil
METAR-TAF:

METAR-TAF

Aéroports :

Trat, Thaïlande

latitude: 12-16-28N, longitude: 102-19-08E, altitude: 32 m

Observation

Le bulletin a été fait il y a 36 minutes, à 01:00 UTC
Vent 11 kt de nord-est
Température 27°C
Humidité 62%
Pression 1018 hPa
Visibilité: 4000 m
brume sèche

METAR: VTBO 220100Z 04011KT 4000 HZ NSC 27/19 Q1018

Heure: 08:36 (01:36 UTC)

Prévision

Le bulletin a été fait il y a 2 heures et 36 minutes, à 23:00 UTC
Prévision valable du 22 à 00 UTC au 22 à 24 UTC
Vent 10 kt de nord-est
Visibilité: 4000 m
brume
Evoluant progressivement
du 22 à 02 UTC au 22 à 04 UTC
Visibilité: 7000 m

TAF: VTBO 212300Z 2200/2224 05010KT 4000 BR NSC BECMG 2202/2204 7000 NSW

Observations et prévisions météorologiques de plus de 4000 aéroports (messages METAR et TAF).

Les stations disponibles sont représentées par des disques jaunes et rouges sur la carte.

Passer la souris dessus pour voir le nom de la station.

Cliquer dessus pour voir les observations et prévisions météorologiques.

Pour changer de carte: cliquez sur les boutons verts avec une croix noire pour zoomer, sur le bouton vert avec un tiret pour effectuer un zoom arrière, ou sur les flèches vertes pour les cartes adjacentes.


METAR-TAF: